Terminal Aerodrome Forecast
Issued by NWS Sioux Falls, SD

Home | Current Version | Previous Version | Text Only | Print | Product List | Glossary Off
Versions: 1 2 3 4 5 6 7 8 9 10 11 12 13 14 15 16 17

000
FTUS43 KFSD 191700
TAFHON
TAF
KHON 191720Z 1918/2018 30006KT P6SM SKC
     FM192100 VRB04KT P6SM SKC
     FM200200 14006KT P6SM SKC
     FM200900 11007KT P6SM SCT120
     FM201400 14013KT P6SM BKN090=

USA.gov is the U.S. government's official web portal to all federal, state and local government web resources and services.